sensor_id;sensor_type;location;lat;lon;timestamp;P1;durP1;ratioP1;P2;durP2;ratioP2
51010;SDS011;37038;50.182;8.624;2023-04-01T00:01:51;6.45;;;2.08;;
51010;SDS011;37038;50.182;8.624;2023-04-01T00:04:39;5.25;;;2.33;;
51010;SDS011;37038;50.182;8.624;2023-04-01T00:07:26;7.90;;;2.95;;
51010;SDS011;37038;50.182;8.624;2023-04-01T00:10:17;6.82;;;2.50;;
51010;SDS011;37038;50.182;8.624;2023-04-01T00:13:05;6.30;;;2.88;;
51010;SDS011;37038;50.182;8.624;2023-04-01T00:15:53;6.47;;;2.28;;
51010;SDS011;37038;50.182;8.624;2023-04-01T00:18:43;8.05;;;3.55;;
51010;SDS011;37038;50.182;8.624;2023-04-01T00:21:32;8.68;;;3.17;;
51010;SDS011;37038;50.182;8.624;2023-04-01T00:24:19;8.10;;;3.05;;
51010;SDS011;37038;50.182;8.624;2023-04-01T00:27:07;3.67;;;2.42;;
51010;SDS011;37038;50.182;8.624;2023-04-01T00:29:55;10.63;;;3.33;;
51010;SDS011;37038;50.182;8.624;2023-04-01T00:32:43;10.45;;;3.55;;
51010;SDS011;37038;50.182;8.624;2023-04-01T00:35:31;7.60;;;3.08;;
51010;SDS011;37038;50.182;8.624;2023-04-01T00:38:19;6.07;;;2.33;;
51010;SDS011;37038;50.182;8.624;2023-04-01T00:41:07;8.15;;;2.40;;
51010;SDS011;37038;50.182;8.624;2023-04-01T00:47:08;6.47;;;2.40;;
51010;SDS011;37038;50.182;8.624;2023-04-01T00:49:57;4.80;;;2.25;;
51010;SDS011;37038;50.182;8.624;2023-04-01T00:52:45;11.98;;;2.70;;
51010;SDS011;37038;50.182;8.624;2023-04-01T00:55:34;10.55;;;2.95;;
51010;SDS011;37038;50.182;8.624;2023-04-01T00:58:24;8.18;;;2.70;;
51010;SDS011;37038;50.182;8.624;2023-04-01T01:01:16;6.40;;;2.72;;
51010;SDS011;37038;50.182;8.624;2023-04-01T01:04:04;5.78;;;2.47;;
51010;SDS011;37038;50.182;8.624;2023-04-01T01:06:57;8.73;;;2.80;;
51010;SDS011;37038;50.182;8.624;2023-04-01T01:10:12;7.45;;;2.30;;
51010;SDS011;37038;50.182;8.624;2023-04-01T01:16:04;11.20;;;2.97;;
51010;SDS011;37038;50.182;8.624;2023-04-01T01:27:37;6.88;;;2.67;;
51010;SDS011;37038;50.182;8.624;2023-04-01T01:37:03;5.72;;;2.10;;
51010;SDS011;37038;50.182;8.624;2023-04-01T01:39:58;6.15;;;2.60;;
51010;SDS011;37038;50.182;8.624;2023-04-01T01:42:50;6.80;;;2.28;;
51010;SDS011;37038;50.182;8.624;2023-04-01T01:45:46;7.47;;;3.10;;
51010;SDS011;37038;50.182;8.624;2023-04-01T01:48:36;6.13;;;2.13;;
51010;SDS011;37038;50.182;8.624;2023-04-01T01:51:29;9.90;;;2.67;;
51010;SDS011;37038;50.182;8.624;2023-04-01T01:54:18;9.73;;;2.55;;
51010;SDS011;37038;50.182;8.624;2023-04-01T01:57:09;7.10;;;2.75;;
51010;SDS011;37038;50.182;8.624;2023-04-01T01:59:59;6.57;;;2.53;;
51010;SDS011;37038;50.182;8.624;2023-04-01T02:02:57;5.07;;;2.67;;
51010;SDS011;37038;50.182;8.624;2023-04-01T02:05:46;8.85;;;2.40;;
51010;SDS011;37038;50.182;8.624;2023-04-01T02:08:39;6.90;;;2.28;;
51010;SDS011;37038;50.182;8.624;2023-04-01T02:14:35;6.43;;;2.15;;
51010;SDS011;37038;50.182;8.624;2023-04-01T02:17:33;6.30;;;2.10;;
51010;SDS011;37038;50.182;8.624;2023-04-01T02:20:24;9.20;;;3.00;;
51010;SDS011;37038;50.182;8.624;2023-04-01T02:23:13;8.35;;;2.58;;
51010;SDS011;37038;50.182;8.624;2023-04-01T02:26:02;6.60;;;2.10;;
51010;SDS011;37038;50.182;8.624;2023-04-01T02:28:54;8.48;;;2.50;;
51010;SDS011;37038;50.182;8.624;2023-04-01T02:31:43;1.80;;;1.70;;
51010;SDS011;37038;50.182;8.624;2023-04-01T02:34:31;4.75;;;2.10;;
51010;SDS011;37038;50.182;8.624;2023-04-01T02:37:20;6.50;;;3.10;;
51010;SDS011;37038;50.182;8.624;2023-04-01T02:40:08;6.97;;;2.10;;
51010;SDS011;37038;50.182;8.624;2023-04-01T02:43:01;6.05;;;2.35;;
51010;SDS011;37038;50.182;8.624;2023-04-01T02:45:48;5.25;;;1.98;;
51010;SDS011;37038;50.182;8.624;2023-04-01T02:48:36;8.23;;;2.28;;
51010;SDS011;37038;50.182;8.624;2023-04-01T02:51:25;7.75;;;2.63;;
51010;SDS011;37038;50.182;8.624;2023-04-01T02:54:13;3.28;;;1.73;;
51010;SDS011;37038;50.182;8.624;2023-04-01T02:57:00;5.35;;;1.83;;
51010;SDS011;37038;50.182;8.624;2023-04-01T02:59:48;11.98;;;2.60;;
51010;SDS011;37038;50.182;8.624;2023-04-01T03:02:35;4.63;;;2.38;;
51010;SDS011;37038;50.182;8.624;2023-04-01T03:05:24;5.30;;;2.20;;
51010;SDS011;37038;50.182;8.624;2023-04-01T03:08:12;7.82;;;2.42;;
51010;SDS011;37038;50.182;8.624;2023-04-01T03:10:59;3.45;;;1.92;;
51010;SDS011;37038;50.182;8.624;2023-04-01T03:13:47;5.38;;;1.77;;
51010;SDS011;37038;50.182;8.624;2023-04-01T03:16:35;3.15;;;1.90;;
51010;SDS011;37038;50.182;8.624;2023-04-01T03:19:23;3.38;;;1.80;;
51010;SDS011;37038;50.182;8.624;2023-04-01T03:22:11;6.25;;;2.35;;
51010;SDS011;37038;50.182;8.624;2023-04-01T03:24:58;6.78;;;2.08;;
51010;SDS011;37038;50.182;8.624;2023-04-01T03:27:46;9.75;;;2.50;;
51010;SDS011;37038;50.182;8.624;2023-04-01T03:30:33;5.35;;;2.25;;
51010;SDS011;37038;50.182;8.624;2023-04-01T03:33:21;5.80;;;2.53;;
51010;SDS011;37038;50.182;8.624;2023-04-01T03:36:09;5.50;;;2.25;;
51010;SDS011;37038;50.182;8.624;2023-04-01T03:38:58;5.90;;;2.03;;
51010;SDS011;37038;50.182;8.624;2023-04-01T03:41:46;7.63;;;2.90;;
51010;SDS011;37038;50.182;8.624;2023-04-01T03:44:33;4.72;;;2.28;;
51010;SDS011;37038;50.182;8.624;2023-04-01T03:47:21;13.52;;;3.17;;
51010;SDS011;37038;50.182;8.624;2023-04-01T03:50:08;9.10;;;2.38;;
51010;SDS011;37038;50.182;8.624;2023-04-01T03:52:57;3.35;;;1.77;;
51010;SDS011;37038;50.182;8.624;2023-04-01T03:55:44;3.95;;;1.83;;
51010;SDS011;37038;50.182;8.624;2023-04-01T03:58:32;4.65;;;2.00;;
51010;SDS011;37038;50.182;8.624;2023-04-01T04:01:20;5.18;;;2.40;;
51010;SDS011;37038;50.182;8.624;2023-04-01T04:04:11;9.73;;;2.22;;
51010;SDS011;37038;50.182;8.624;2023-04-01T04:07:02;4.05;;;1.77;;
51010;SDS011;37038;50.182;8.624;2023-04-01T04:09:49;4.97;;;2.50;;
51010;SDS011;37038;50.182;8.624;2023-04-01T04:12:37;6.95;;;2.22;;
51010;SDS011;37038;50.182;8.624;2023-04-01T04:15:24;8.10;;;2.60;;
51010;SDS011;37038;50.182;8.624;2023-04-01T04:18:12;5.47;;;2.97;;
51010;SDS011;37038;50.182;8.624;2023-04-01T04:20:59;9.05;;;2.50;;
51010;SDS011;37038;50.182;8.624;2023-04-01T04:23:47;6.10;;;2.50;;
51010;SDS011;37038;50.182;8.624;2023-04-01T04:26:34;4.45;;;2.63;;
51010;SDS011;37038;50.182;8.624;2023-04-01T04:29:22;10.65;;;2.50;;
51010;SDS011;37038;50.182;8.624;2023-04-01T04:32:10;5.70;;;2.00;;
51010;SDS011;37038;50.182;8.624;2023-04-01T04:34:57;7.70;;;2.15;;
51010;SDS011;37038;50.182;8.624;2023-04-01T04:37:45;8.70;;;2.53;;
51010;SDS011;37038;50.182;8.624;2023-04-01T04:40:32;5.00;;;2.22;;
51010;SDS011;37038;50.182;8.624;2023-04-01T04:43:22;7.40;;;2.10;;
51010;SDS011;37038;50.182;8.624;2023-04-01T04:46:10;7.57;;;2.63;;
51010;SDS011;37038;50.182;8.624;2023-04-01T04:48:57;7.63;;;2.70;;
51010;SDS011;37038;50.182;8.624;2023-04-01T04:51:45;9.02;;;2.67;;
51010;SDS011;37038;50.182;8.624;2023-04-01T04:54:33;9.38;;;2.50;;
51010;SDS011;37038;50.182;8.624;2023-04-01T04:57:20;7.65;;;3.08;;
51010;SDS011;37038;50.182;8.624;2023-04-01T05:00:08;7.82;;;2.95;;
51010;SDS011;37038;50.182;8.624;2023-04-01T05:02:57;4.53;;;2.22;;
51010;SDS011;37038;50.182;8.624;2023-04-01T05:05:48;5.07;;;2.13;;
51010;SDS011;37038;50.182;8.624;2023-04-01T05:08:37;4.43;;;2.05;;
51010;SDS011;37038;50.182;8.624;2023-04-01T05:11:29;6.07;;;1.95;;
51010;SDS011;37038;50.182;8.624;2023-04-01T05:14:16;6.25;;;2.03;;
51010;SDS011;37038;50.182;8.624;2023-04-01T05:17:05;12.23;;;3.47;;
51010;SDS011;37038;50.182;8.624;2023-04-01T05:19:59;9.45;;;3.10;;
51010;SDS011;37038;50.182;8.624;2023-04-01T05:22:47;10.27;;;2.97;;
51010;SDS011;37038;50.182;8.624;2023-04-01T05:25:37;6.25;;;2.40;;
51010;SDS011;37038;50.182;8.624;2023-04-01T05:28:25;10.43;;;2.75;;
51010;SDS011;37038;50.182;8.624;2023-04-01T05:31:12;5.20;;;2.38;;
51010;SDS011;37038;50.182;8.624;2023-04-01T05:34:00;8.77;;;2.10;;
51010;SDS011;37038;50.182;8.624;2023-04-01T05:36:48;6.47;;;2.10;;
51010;SDS011;37038;50.182;8.624;2023-04-01T05:39:36;5.65;;;1.80;;
51010;SDS011;37038;50.182;8.624;2023-04-01T05:42:24;5.50;;;2.22;;
51010;SDS011;37038;50.182;8.624;2023-04-01T05:45:12;5.45;;;2.08;;
51010;SDS011;37038;50.182;8.624;2023-04-01T05:48:02;5.30;;;2.00;;
51010;SDS011;37038;50.182;8.624;2023-04-01T05:50:50;3.63;;;2.45;;
51010;SDS011;37038;50.182;8.624;2023-04-01T05:53:40;7.32;;;2.13;;
51010;SDS011;37038;50.182;8.624;2023-04-01T05:56:41;4.50;;;2.25;;
51010;SDS011;37038;50.182;8.624;2023-04-01T05:59:46;6.10;;;1.88;;
51010;SDS011;37038;50.182;8.624;2023-04-01T06:05:42;8.27;;;2.83;;
51010;SDS011;37038;50.182;8.624;2023-04-01T06:09:16;7.00;;;2.20;;
51010;SDS011;37038;50.182;8.624;2023-04-01T06:15:20;4.78;;;2.38;;
51010;SDS011;37038;50.182;8.624;2023-04-01T06:21:54;4.00;;;1.95;;
51010;SDS011;37038;50.182;8.624;2023-04-01T06:32:01;4.35;;;2.03;;
51010;SDS011;37038;50.182;8.624;2023-04-01T06:34:41;2.45;;;1.50;;
51010;SDS011;37038;50.182;8.624;2023-04-01T06:40:57;4.28;;;2.20;;
51010;SDS011;37038;50.182;8.624;2023-04-01T06:44:16;5.50;;;1.55;;
51010;SDS011;37038;50.182;8.624;2023-04-01T06:47:30;3.58;;;1.17;;
51010;SDS011;37038;50.182;8.624;2023-04-01T06:56:53;4.10;;;1.45;;
51010;SDS011;37038;50.182;8.624;2023-04-01T06:59:47;3.80;;;1.50;;
51010;SDS011;37038;50.182;8.624;2023-04-01T07:02:41;6.18;;;1.60;;
51010;SDS011;37038;50.182;8.624;2023-04-01T07:05:40;5.50;;;1.88;;
51010;SDS011;37038;50.182;8.624;2023-04-01T07:08:29;2.90;;;1.60;;
51010;SDS011;37038;50.182;8.624;2023-04-01T07:11:25;4.63;;;1.80;;
51010;SDS011;37038;50.182;8.624;2023-04-01T07:14:22;4.68;;;1.80;;
51010;SDS011;37038;50.182;8.624;2023-04-01T07:17:23;2.65;;;1.20;;
51010;SDS011;37038;50.182;8.624;2023-04-01T07:23:16;4.05;;;1.50;;
51010;SDS011;37038;50.182;8.624;2023-04-01T07:26:19;5.93;;;1.70;;
51010;SDS011;37038;50.182;8.624;2023-04-01T07:29:09;3.88;;;1.50;;
51010;SDS011;37038;50.182;8.624;2023-04-01T07:47:45;3.97;;;1.20;;
51010;SDS011;37038;50.182;8.624;2023-04-01T07:50:46;5.65;;;1.77;;
51010;SDS011;37038;50.182;8.624;2023-04-01T08:00:24;2.42;;;1.27;;
51010;SDS011;37038;50.182;8.624;2023-04-01T08:09:43;2.95;;;1.23;;
51010;SDS011;37038;50.182;8.624;2023-04-01T08:16:31;3.72;;;1.08;;
51010;SDS011;37038;50.182;8.624;2023-04-01T08:26:09;1.63;;;1.10;;
51010;SDS011;37038;50.182;8.624;2023-04-01T08:29:09;2.38;;;1.13;;
51010;SDS011;37038;50.182;8.624;2023-04-01T08:32:12;2.47;;;1.10;;
51010;SDS011;37038;50.182;8.624;2023-04-01T08:35:15;2.40;;;0.98;;
51010;SDS011;37038;50.182;8.624;2023-04-01T08:51:09;2.90;;;1.15;;
51010;SDS011;37038;50.182;8.624;2023-04-01T08:54:12;2.45;;;1.10;;
51010;SDS011;37038;50.182;8.624;2023-04-01T09:04:11;2.15;;;1.10;;
51010;SDS011;37038;50.182;8.624;2023-04-01T09:07:12;3.03;;;1.27;;
51010;SDS011;37038;50.182;8.624;2023-04-01T09:19:57;4.88;;;1.20;;
51010;SDS011;37038;50.182;8.624;2023-04-01T09:26:00;1.77;;;1.00;;
51010;SDS011;37038;50.182;8.624;2023-04-01T09:32:32;2.67;;;1.02;;
51010;SDS011;37038;50.182;8.624;2023-04-01T09:44:53;3.30;;;1.20;;
51010;SDS011;37038;50.182;8.624;2023-04-01T10:07:08;1.45;;;0.90;;
51010;SDS011;37038;50.182;8.624;2023-04-01T10:16:28;2.17;;;1.00;;
51010;SDS011;37038;50.182;8.624;2023-04-01T10:19:42;1.40;;;1.30;;
51010;SDS011;37038;50.182;8.624;2023-04-01T10:45:41;2.58;;;1.30;;
51010;SDS011;37038;50.182;8.624;2023-04-01T10:55:14;2.05;;;1.50;;
51010;SDS011;37038;50.182;8.624;2023-04-01T11:29:52;2.60;;;1.23;;
51010;SDS011;37038;50.182;8.624;2023-04-01T11:32:52;2.90;;;1.38;;
51010;SDS011;37038;50.182;8.624;2023-04-01T11:42:07;0.82;;;0.82;;
51010;SDS011;37038;50.182;8.624;2023-04-01T11:54:29;2.45;;;1.02;;
51010;SDS011;37038;50.182;8.624;2023-04-01T12:00:38;0.95;;;0.90;;
51010;SDS011;37038;50.182;8.624;2023-04-01T12:03:43;1.15;;;0.88;;
51010;SDS011;37038;50.182;8.624;2023-04-01T12:10:12;2.13;;;1.00;;
51010;SDS011;37038;50.182;8.624;2023-04-01T12:13:35;1.48;;;1.08;;
51010;SDS011;37038;50.182;8.624;2023-04-01T12:19:43;0.98;;;0.98;;
51010;SDS011;37038;50.182;8.624;2023-04-01T12:28:41;1.08;;;0.68;;
51010;SDS011;37038;50.182;8.624;2023-04-01T13:03:20;2.70;;;1.65;;
51010;SDS011;37038;50.182;8.624;2023-04-01T13:09:32;1.90;;;1.25;;
51010;SDS011;37038;50.182;8.624;2023-04-01T13:15:53;3.97;;;1.27;;
51010;SDS011;37038;50.182;8.624;2023-04-01T13:22:11;1.60;;;1.10;;
51010;SDS011;37038;50.182;8.624;2023-04-01T13:25:14;1.20;;;1.10;;
51010;SDS011;37038;50.182;8.624;2023-04-01T13:28:20;5.78;;;1.58;;
51010;SDS011;37038;50.182;8.624;2023-04-01T13:40:53;1.83;;;1.40;;
51010;SDS011;37038;50.182;8.624;2023-04-01T13:43:58;1.50;;;1.40;;
51010;SDS011;37038;50.182;8.624;2023-04-01T13:53:21;1.38;;;0.80;;
51010;SDS011;37038;50.182;8.624;2023-04-01T13:56:23;1.10;;;1.00;;
51010;SDS011;37038;50.182;8.624;2023-04-01T14:12:58;1.92;;;0.93;;
51010;SDS011;37038;50.182;8.624;2023-04-01T14:16:04;3.40;;;0.73;;
51010;SDS011;37038;50.182;8.624;2023-04-01T14:25:41;3.97;;;0.93;;
51010;SDS011;37038;50.182;8.624;2023-04-01T14:34:55;2.50;;;1.48;;
51010;SDS011;37038;50.182;8.624;2023-04-01T14:48:13;1.38;;;0.85;;
51010;SDS011;37038;50.182;8.624;2023-04-01T14:51:16;1.48;;;0.90;;
51010;SDS011;37038;50.182;8.624;2023-04-01T15:00:17;1.55;;;0.80;;
51010;SDS011;37038;50.182;8.624;2023-04-01T15:03:13;0.93;;;0.85;;
51010;SDS011;37038;50.182;8.624;2023-04-01T15:09:17;3.67;;;0.88;;
51010;SDS011;37038;50.182;8.624;2023-04-01T15:18:44;1.13;;;0.95;;
51010;SDS011;37038;50.182;8.624;2023-04-01T15:21:59;2.17;;;0.85;;
51010;SDS011;37038;50.182;8.624;2023-04-01T15:27:52;1.45;;;0.90;;
51010;SDS011;37038;50.182;8.624;2023-04-01T15:31:16;3.38;;;1.05;;
51010;SDS011;37038;50.182;8.624;2023-04-01T15:34:41;1.75;;;1.00;;
51010;SDS011;37038;50.182;8.624;2023-04-01T15:37:53;1.10;;;0.90;;
51010;SDS011;37038;50.182;8.624;2023-04-01T15:40:48;1.27;;;0.90;;
51010;SDS011;37038;50.182;8.624;2023-04-01T15:43:42;1.95;;;0.70;;
51010;SDS011;37038;50.182;8.624;2023-04-01T15:46:48;1.00;;;0.90;;
51010;SDS011;37038;50.182;8.624;2023-04-01T15:49:43;2.60;;;1.00;;
51010;SDS011;37038;50.182;8.624;2023-04-01T15:52:43;1.17;;;0.98;;
51010;SDS011;37038;50.182;8.624;2023-04-01T15:58:46;0.90;;;0.90;;
51010;SDS011;37038;50.182;8.624;2023-04-01T16:04:50;2.33;;;1.13;;
51010;SDS011;37038;50.182;8.624;2023-04-01T16:08:18;0.93;;;0.85;;
51010;SDS011;37038;50.182;8.624;2023-04-01T16:11:08;2.13;;;0.90;;
51010;SDS011;37038;50.182;8.624;2023-04-01T16:14:10;3.05;;;1.00;;
51010;SDS011;37038;50.182;8.624;2023-04-01T16:20:07;1.05;;;1.02;;
51010;SDS011;37038;50.182;8.624;2023-04-01T16:26:26;3.10;;;1.08;;
51010;SDS011;37038;50.182;8.624;2023-04-01T16:29:28;0.98;;;0.98;;
51010;SDS011;37038;50.182;8.624;2023-04-01T16:32:34;0.88;;;0.88;;
51010;SDS011;37038;50.182;8.624;2023-04-01T16:38:26;0.80;;;0.80;;
51010;SDS011;37038;50.182;8.624;2023-04-01T16:41:32;2.60;;;0.93;;
51010;SDS011;37038;50.182;8.624;2023-04-01T16:44:24;0.80;;;0.70;;
51010;SDS011;37038;50.182;8.624;2023-04-01T16:47:15;1.58;;;0.85;;
51010;SDS011;37038;50.182;8.624;2023-04-01T16:53:37;1.08;;;0.70;;
51010;SDS011;37038;50.182;8.624;2023-04-01T16:56:42;1.73;;;1.48;;
51010;SDS011;37038;50.182;8.624;2023-04-01T16:59:54;1.60;;;1.30;;
51010;SDS011;37038;50.182;8.624;2023-04-01T17:02:49;2.10;;;1.38;;
51010;SDS011;37038;50.182;8.624;2023-04-01T17:21:43;1.63;;;1.50;;
51010;SDS011;37038;50.182;8.624;2023-04-01T17:27:59;1.85;;;1.20;;
51010;SDS011;37038;50.182;8.624;2023-04-01T17:40:28;1.10;;;1.00;;
51010;SDS011;37038;50.182;8.624;2023-04-01T17:55:55;1.30;;;1.20;;
51010;SDS011;37038;50.182;8.624;2023-04-01T17:58:58;1.40;;;1.30;;
51010;SDS011;37038;50.182;8.624;2023-04-01T18:02:10;1.42;;;1.20;;
51010;SDS011;37038;50.182;8.624;2023-04-01T18:17:17;1.73;;;1.48;;
51010;SDS011;37038;50.182;8.624;2023-04-01T18:23:33;1.40;;;1.30;;
51010;SDS011;37038;50.182;8.624;2023-04-01T18:26:36;1.65;;;1.30;;
51010;SDS011;37038;50.182;8.624;2023-04-01T18:29:40;2.83;;;1.55;;
51010;SDS011;37038;50.182;8.624;2023-04-01T18:32:41;1.73;;;1.30;;
51010;SDS011;37038;50.182;8.624;2023-04-01T18:38:36;2.35;;;1.98;;
51010;SDS011;37038;50.182;8.624;2023-04-01T18:41:30;2.75;;;2.40;;
51010;SDS011;37038;50.182;8.624;2023-04-01T18:47:22;2.17;;;2.00;;
51010;SDS011;37038;50.182;8.624;2023-04-01T18:50:22;2.90;;;2.60;;
51010;SDS011;37038;50.182;8.624;2023-04-01T18:53:19;2.50;;;2.30;;
51010;SDS011;37038;50.182;8.624;2023-04-01T18:56:37;2.97;;;2.10;;
51010;SDS011;37038;50.182;8.624;2023-04-01T18:59:50;2.92;;;2.20;;
51010;SDS011;37038;50.182;8.624;2023-04-01T19:02:46;5.53;;;2.85;;
51010;SDS011;37038;50.182;8.624;2023-04-01T19:05:42;3.55;;;1.98;;
51010;SDS011;37038;50.182;8.624;2023-04-01T19:08:35;2.50;;;2.13;;
51010;SDS011;37038;50.182;8.624;2023-04-01T19:20:32;2.42;;;2.15;;
51010;SDS011;37038;50.182;8.624;2023-04-01T19:35:42;3.00;;;1.70;;
51010;SDS011;37038;50.182;8.624;2023-04-01T19:38:39;2.80;;;1.70;;
51010;SDS011;37038;50.182;8.624;2023-04-01T19:41:45;2.22;;;1.80;;
51010;SDS011;37038;50.182;8.624;2023-04-01T19:51:31;2.10;;;1.92;;
51010;SDS011;37038;50.182;8.624;2023-04-01T19:54:35;2.42;;;1.77;;
51010;SDS011;37038;50.182;8.624;2023-04-01T19:58:41;2.42;;;1.90;;
51010;SDS011;37038;50.182;8.624;2023-04-01T20:01:32;3.80;;;2.00;;
51010;SDS011;37038;50.182;8.624;2023-04-01T20:04:36;2.28;;;2.00;;
51010;SDS011;37038;50.182;8.624;2023-04-01T20:07:41;1.92;;;1.73;;
51010;SDS011;37038;50.182;8.624;2023-04-01T20:10:36;2.45;;;2.25;;
51010;SDS011;37038;50.182;8.624;2023-04-01T20:16:49;3.00;;;1.70;;
51010;SDS011;37038;50.182;8.624;2023-04-01T20:25:57;2.92;;;2.00;;
51010;SDS011;37038;50.182;8.624;2023-04-01T20:35:22;4.10;;;2.40;;
51010;SDS011;37038;50.182;8.624;2023-04-01T20:38:49;3.67;;;2.47;;
51010;SDS011;37038;50.182;8.624;2023-04-01T20:51:30;4.18;;;2.92;;
51010;SDS011;37038;50.182;8.624;2023-04-01T20:57:38;4.18;;;2.55;;
51010;SDS011;37038;50.182;8.624;2023-04-01T21:01:30;3.65;;;2.90;;
51010;SDS011;37038;50.182;8.624;2023-04-01T21:07:34;3.83;;;3.40;;
51010;SDS011;37038;50.182;8.624;2023-04-01T21:13:50;7.18;;;4.10;;
51010;SDS011;37038;50.182;8.624;2023-04-01T21:38:53;5.68;;;5.18;;
51010;SDS011;37038;50.182;8.624;2023-04-01T22:09:29;8.05;;;4.32;;
51010;SDS011;37038;50.182;8.624;2023-04-01T22:19:12;5.20;;;4.70;;
51010;SDS011;37038;50.182;8.624;2023-04-01T22:22:30;5.88;;;4.72;;
51010;SDS011;37038;50.182;8.624;2023-04-01T22:25:14;5.13;;;4.63;;
51010;SDS011;37038;50.182;8.624;2023-04-01T22:28:16;5.35;;;4.50;;
51010;SDS011;37038;50.182;8.624;2023-04-01T22:31:11;6.47;;;4.47;;
51010;SDS011;37038;50.182;8.624;2023-04-01T22:34:13;6.30;;;4.70;;
51010;SDS011;37038;50.182;8.624;2023-04-01T22:37:27;5.93;;;4.88;;
51010;SDS011;37038;50.182;8.624;2023-04-01T22:43:36;6.05;;;5.15;;
51010;SDS011;37038;50.182;8.624;2023-04-01T22:46:43;8.43;;;6.40;;
51010;SDS011;37038;50.182;8.624;2023-04-01T22:49:35;8.57;;;6.60;;
51010;SDS011;37038;50.182;8.624;2023-04-01T22:52:46;11.25;;;6.57;;
51010;SDS011;37038;50.182;8.624;2023-04-01T22:55:38;7.03;;;5.03;;
51010;SDS011;37038;50.182;8.624;2023-04-01T22:58:45;7.03;;;6.38;;
51010;SDS011;37038;50.182;8.624;2023-04-01T23:01:55;5.93;;;5.35;;
51010;SDS011;37038;50.182;8.624;2023-04-01T23:04:48;7.05;;;6.40;;
51010;SDS011;37038;50.182;8.624;2023-04-01T23:08:06;7.75;;;6.80;;
51010;SDS011;37038;50.182;8.624;2023-04-01T23:11:18;7.63;;;6.90;;
51010;SDS011;37038;50.182;8.624;2023-04-01T23:26:51;6.75;;;6.05;;
51010;SDS011;37038;50.182;8.624;2023-04-01T23:29:48;7.72;;;5.53;;
51010;SDS011;37038;50.182;8.624;2023-04-01T23:32:36;8.18;;;6.18;;
51010;SDS011;37038;50.182;8.624;2023-04-01T23:35:24;8.35;;;5.80;;
51010;SDS011;37038;50.182;8.624;2023-04-01T23:38:12;6.25;;;5.65;;
51010;SDS011;37038;50.182;8.624;2023-04-01T23:40:59;5.75;;;5.25;;
51010;SDS011;37038;50.182;8.624;2023-04-01T23:43:51;6.82;;;6.00;;
51010;SDS011;37038;50.182;8.624;2023-04-01T23:46:53;7.82;;;5.57;;
51010;SDS011;37038;50.182;8.624;2023-04-01T23:49:43;6.25;;;5.75;;
51010;SDS011;37038;50.182;8.624;2023-04-01T23:52:38;7.45;;;6.32;;
51010;SDS011;37038;50.182;8.624;2023-04-01T23:55:31;6.87;;;5.97;;
51010;SDS011;37038;50.182;8.624;2023-04-01T23:58:27;9.90;;;7.05;;
